createdAt,value
2019-03-03T00:00:46.564Z,8.87
2019-03-03T00:01:46.482Z,8.92
2019-03-03T00:02:46.397Z,8.97
2019-03-03T00:03:46.310Z,8.92
2019-03-03T00:04:46.229Z,8.91
2019-03-03T00:05:46.145Z,8.91
2019-03-03T00:06:46.063Z,8.94
2019-03-03T00:07:45.978Z,8.94
2019-03-03T00:08:45.894Z,8.91
2019-03-03T00:09:45.808Z,8.92
2019-03-03T00:10:45.730Z,8.97
2019-03-03T00:11:45.641Z,8.97
2019-03-03T00:12:45.557Z,9.00
2019-03-03T00:13:45.465Z,8.95
2019-03-03T00:14:45.385Z,8.92
2019-03-03T00:15:45.304Z,8.94
2019-03-03T00:16:45.261Z,8.94
2019-03-03T00:17:45.136Z,9.04
2019-03-03T00:18:45.051Z,9.04
2019-03-03T00:19:44.967Z,9.08
2019-03-03T00:20:44.883Z,9.04
2019-03-03T00:21:44.798Z,9.02
2019-03-03T00:22:44.715Z,8.97
2019-03-03T00:23:44.631Z,9.13
2019-03-03T00:24:44.549Z,9.10
2019-03-03T00:25:44.460Z,8.99
2019-03-03T00:26:44.379Z,9.11
2019-03-03T00:27:44.293Z,9.04
2019-03-03T00:28:44.210Z,9.04
2019-03-03T00:29:44.124Z,9.06
2019-03-03T00:30:44.040Z,9.08
2019-03-03T00:31:43.956Z,9.06
2019-03-03T00:32:43.877Z,9.19
2019-03-03T00:33:43.782Z,9.13
2019-03-03T00:34:43.703Z,9.14
2019-03-03T00:35:43.619Z,9.14
2019-03-03T00:36:43.588Z,9.14
2019-03-03T00:37:43.451Z,9.04
2019-03-03T00:38:43.369Z,9.16
2019-03-03T00:39:43.284Z,9.10
2019-03-03T00:40:43.197Z,9.04
2019-03-03T00:41:43.113Z,9.16
2019-03-03T00:42:43.029Z,9.06
2019-03-03T00:43:42.953Z,9.11
2019-03-03T00:44:42.857Z,9.14
2019-03-03T00:45:42.778Z,9.19
2019-03-03T00:46:42.693Z,9.16
2019-03-03T00:47:42.612Z,9.11
2019-03-03T00:48:42.527Z,9.21
2019-03-03T00:49:42.441Z,9.13
2019-03-03T00:50:42.357Z,9.11
2019-03-03T00:51:42.274Z,9.13
2019-03-03T00:52:42.194Z,9.18
2019-03-03T00:53:42.110Z,9.11
2019-03-03T00:54:42.022Z,9.16
2019-03-03T00:55:41.939Z,9.16
2019-03-03T00:56:41.875Z,9.08
2019-03-03T00:57:41.774Z,9.13
2019-03-03T00:58:41.683Z,9.06
2019-03-03T00:59:41.601Z,9.18
2019-03-03T01:00:41.516Z,9.18
2019-03-03T01:01:41.432Z,9.22
2019-03-03T01:02:41.349Z,9.16
2019-03-03T01:03:41.262Z,9.08
2019-03-03T01:04:41.183Z,9.16
2019-03-03T01:05:41.097Z,9.10
2019-03-03T01:06:41.017Z,9.08
2019-03-03T01:07:40.929Z,9.22
2019-03-03T01:08:40.841Z,9.22
2019-03-03T01:09:40.762Z,9.19
2019-03-03T01:10:40.677Z,9.18
2019-03-03T01:11:40.594Z,9.14
2019-03-03T01:12:40.504Z,9.18
2019-03-03T01:13:40.426Z,9.23
2019-03-03T01:14:40.341Z,9.16
2019-03-03T01:15:40.251Z,9.28
2019-03-03T01:16:40.183Z,9.22
2019-03-03T01:17:40.088Z,9.25
2019-03-03T01:18:40.002Z,9.25
2019-03-03T01:19:39.919Z,9.23
2019-03-03T01:20:39.835Z,9.22
2019-03-03T01:21:39.754Z,9.23
2019-03-03T01:22:39.668Z,9.25
2019-03-03T01:23:39.581Z,9.29
2019-03-03T01:24:39.501Z,9.29
2019-03-03T01:25:39.443Z,9.23
2019-03-03T01:26:39.332Z,9.29
2019-03-03T01:27:39.247Z,9.25
2019-03-03T01:28:39.165Z,9.23
2019-03-03T01:29:39.081Z,9.32
2019-03-03T01:30:39.001Z,9.26
2019-03-03T01:31:38.921Z,9.29
2019-03-03T01:32:38.828Z,9.25
2019-03-03T01:33:38.744Z,9.26
2019-03-03T01:34:38.659Z,9.28
2019-03-03T01:35:38.571Z,9.31
2019-03-03T01:36:38.489Z,9.31
2019-03-03T01:37:38.407Z,9.31
2019-03-03T01:38:38.325Z,9.32
2019-03-03T01:39:38.239Z,9.31
2019-03-03T01:40:38.156Z,9.31
2019-03-03T01:41:38.075Z,9.28
2019-03-03T01:42:37.989Z,9.26
2019-03-03T01:43:37.902Z,9.32
2019-03-03T01:44:37.824Z,9.34
2019-03-03T01:45:37.732Z,9.37
2019-03-03T01:46:37.651Z,9.31
2019-03-03T01:47:37.569Z,9.34
2019-03-03T01:48:37.483Z,9.26
2019-03-03T01:49:37.400Z,9.34
2019-03-03T01:50:37.315Z,9.31
2019-03-03T01:51:37.233Z,9.26
2019-03-03T01:52:37.140Z,9.32
2019-03-03T01:53:37.061Z,9.37
2019-03-03T01:54:36.978Z,9.34
2019-03-03T01:55:36.896Z,9.25
2019-03-03T01:56:36.813Z,9.36
2019-03-03T01:57:36.726Z,9.26
2019-03-03T01:58:36.644Z,9.32
2019-03-03T01:59:36.560Z,9.36
2019-03-03T02:00:36.477Z,9.28
2019-03-03T02:01:36.392Z,9.29
2019-03-03T02:02:36.307Z,9.29
2019-03-03T02:03:36.222Z,9.25
2019-03-03T02:04:36.139Z,9.28
2019-03-03T02:05:36.060Z,9.28
2019-03-03T02:06:35.977Z,9.23
2019-03-03T02:07:35.886Z,9.32
2019-03-03T02:08:35.801Z,9.25
2019-03-03T02:09:35.720Z,9.29
2019-03-03T02:10:35.628Z,9.31
2019-03-03T02:11:35.550Z,9.28
2019-03-03T02:12:35.465Z,9.32
2019-03-03T02:13:35.384Z,9.28
2019-03-03T02:14:35.304Z,9.26
2019-03-03T02:15:35.215Z,9.26
2019-03-03T02:16:35.132Z,9.26
2019-03-03T02:17:35.048Z,9.25
2019-03-03T02:18:34.966Z,9.28
2019-03-03T02:19:34.877Z,9.29
2019-03-03T02:20:34.794Z,9.28
2019-03-03T02:21:34.709Z,9.28
2019-03-03T02:22:34.624Z,9.26
2019-03-03T02:23:34.540Z,9.29
2019-03-03T02:24:34.461Z,9.32
2019-03-03T02:25:34.373Z,9.25
2019-03-03T02:26:34.287Z,9.25
2019-03-03T02:27:34.204Z,9.28
2019-03-03T02:28:34.119Z,9.26
2019-03-03T02:29:34.038Z,9.28
2019-03-03T02:30:33.955Z,9.25
2019-03-03T02:31:33.874Z,9.25
2019-03-03T02:32:33.788Z,9.26
2019-03-03T02:33:33.738Z,9.25
2019-03-03T02:34:33.625Z,9.28
2019-03-03T02:35:33.539Z,9.23
2019-03-03T02:36:33.451Z,9.26
2019-03-03T02:37:33.363Z,9.26
2019-03-03T02:38:33.281Z,9.22
2019-03-03T02:39:33.193Z,9.28
2019-03-03T02:40:33.111Z,9.28
2019-03-03T02:41:33.028Z,9.26
2019-03-03T02:42:32.946Z,9.29
2019-03-03T02:43:32.859Z,9.28
2019-03-03T02:44:32.776Z,9.28
2019-03-03T02:45:32.694Z,9.28
2019-03-03T02:46:32.606Z,9.31
2019-03-03T02:47:32.526Z,9.29
2019-03-03T02:48:32.438Z,9.31
2019-03-03T02:49:32.363Z,9.28
2019-03-03T02:50:32.272Z,9.29
2019-03-03T02:51:32.185Z,9.23
2019-03-03T02:52:32.096Z,9.28
2019-03-03T02:53:32.021Z,9.25
2019-03-03T02:54:31.937Z,9.31
2019-03-03T02:55:31.850Z,9.28
2019-03-03T02:56:31.765Z,9.34
2019-03-03T02:57:31.680Z,9.26
2019-03-03T02:58:31.603Z,9.28
2019-03-03T02:59:31.518Z,9.29
2019-03-03T03:00:31.429Z,9.31
2019-03-03T03:01:31.346Z,9.34
2019-03-03T03:02:31.262Z,9.29
2019-03-03T03:03:31.175Z,9.25
2019-03-03T03:04:31.098Z,9.31
2019-03-03T03:05:31.009Z,9.28
2019-03-03T03:06:30.925Z,9.34
2019-03-03T03:07:30.841Z,9.31
2019-03-03T03:08:30.762Z,9.32
2019-03-03T03:09:30.673Z,9.39
2019-03-03T03:10:30.583Z,9.28
2019-03-03T03:11:30.504Z,9.29
2019-03-03T03:12:30.420Z,9.26
2019-03-03T03:13:30.334Z,9.23
2019-03-03T03:14:30.251Z,9.28
2019-03-03T03:15:30.170Z,9.23
2019-03-03T03:16:30.087Z,9.31
2019-03-03T03:17:29.997Z,9.28
2019-03-03T03:18:29.915Z,9.28
2019-03-03T03:19:29.831Z,9.31
2019-03-03T03:20:29.749Z,9.29
2019-03-03T03:21:29.663Z,9.28
2019-03-03T03:22:29.577Z,9.25
2019-03-03T03:23:29.493Z,9.28
2019-03-03T03:24:29.414Z,9.34
2019-03-03T03:25:29.329Z,9.26
2019-03-03T03:26:29.243Z,9.26
2019-03-03T03:27:29.156Z,9.23
2019-03-03T03:28:29.075Z,9.32
2019-03-03T03:29:28.989Z,9.29
2019-03-03T03:30:28.908Z,9.37
2019-03-03T03:31:28.829Z,9.32
2019-03-03T03:32:28.744Z,9.32
2019-03-03T03:33:28.651Z,9.31
2019-03-03T03:34:28.724Z,9.34
2019-03-03T03:35:28.485Z,9.34
2019-03-03T03:36:28.412Z,9.39
2019-03-03T03:37:28.321Z,9.40
2019-03-03T03:38:28.240Z,9.39
2019-03-03T03:39:28.150Z,9.34
2019-03-03T03:40:28.066Z,9.39
2019-03-03T03:41:27.984Z,9.31
2019-03-03T03:42:27.900Z,9.40
2019-03-03T03:43:27.829Z,9.40
2019-03-03T03:44:27.732Z,9.36
2019-03-03T03:45:27.649Z,9.43
2019-03-03T03:46:27.566Z,9.32
2019-03-03T03:47:27.480Z,9.40
2019-03-03T03:48:27.394Z,9.37
2019-03-03T03:49:27.328Z,9.43
2019-03-03T03:50:27.228Z,9.37
2019-03-03T03:51:27.145Z,9.36
2019-03-03T03:52:27.096Z,9.36
2019-03-03T03:53:26.976Z,9.36
2019-03-03T03:54:26.894Z,9.39
2019-03-03T03:55:26.811Z,9.43
2019-03-03T03:56:26.727Z,9.39
2019-03-03T03:57:26.644Z,9.40
2019-03-03T03:58:26.557Z,9.41
2019-03-03T03:59:26.480Z,9.34
2019-03-03T04:00:26.388Z,9.32
2019-03-03T04:01:26.303Z,9.39
2019-03-03T04:02:26.220Z,9.36
2019-03-03T04:03:26.138Z,9.32
2019-03-03T04:04:26.089Z,9.36
2019-03-03T04:05:25.964Z,9.29
2019-03-03T04:06:25.901Z,9.31
2019-03-03T04:07:25.802Z,9.25
2019-03-03T04:08:25.727Z,9.25
2019-03-03T04:09:25.632Z,9.25
2019-03-03T04:10:25.549Z,9.23
2019-03-03T04:11:25.467Z,9.28
2019-03-03T04:12:25.379Z,9.25
2019-03-03T04:13:25.316Z,9.25
2019-03-03T04:14:25.215Z,9.25
2019-03-03T04:15:25.132Z,9.25
2019-03-03T04:16:25.049Z,9.22
2019-03-03T04:17:24.964Z,9.25
2019-03-03T04:18:24.879Z,9.28
2019-03-03T04:19:24.798Z,9.28
2019-03-03T04:20:24.711Z,9.23
2019-03-03T04:21:24.634Z,9.34
2019-03-03T04:22:24.545Z,9.31
2019-03-03T04:23:24.458Z,9.28
2019-03-03T04:24:24.376Z,9.28
2019-03-03T04:25:24.291Z,9.29
2019-03-03T04:26:24.206Z,9.28
2019-03-03T04:27:24.124Z,9.28
2019-03-03T04:28:24.038Z,9.25
2019-03-03T04:29:23.951Z,9.28
2019-03-03T04:30:23.872Z,9.28
2019-03-03T04:31:23.787Z,9.31
2019-03-03T04:32:23.702Z,9.36
2019-03-03T04:33:23.620Z,9.37
2019-03-03T04:34:23.527Z,9.37
2019-03-03T04:35:23.450Z,9.34
2019-03-03T04:36:23.366Z,9.28
2019-03-03T04:37:23.285Z,9.26
2019-03-03T04:38:23.196Z,9.31
2019-03-03T04:39:23.109Z,9.25
2019-03-03T04:40:23.030Z,9.25
2019-03-03T04:41:22.945Z,9.25
2019-03-03T04:42:22.863Z,9.25
2019-03-03T04:43:22.777Z,9.28
2019-03-03T04:44:22.753Z,9.28
2019-03-03T04:45:22.616Z,9.28
2019-03-03T04:46:22.521Z,9.31
2019-03-03T04:47:22.438Z,9.31
2019-03-03T04:48:22.365Z,9.29
2019-03-03T04:49:22.273Z,9.31
2019-03-03T04:50:22.188Z,9.31
2019-03-03T04:51:22.104Z,9.29
2019-03-03T04:52:22.021Z,9.39
2019-03-03T04:53:21.937Z,9.34
2019-03-03T04:54:21.853Z,9.34
2019-03-03T04:55:21.770Z,9.31
2019-03-03T04:56:21.681Z,9.29
2019-03-03T04:57:21.602Z,9.34
2019-03-03T04:58:21.518Z,9.34
2019-03-03T04:59:21.426Z,9.29
2019-03-03T05:00:21.352Z,9.41
2019-03-03T05:01:21.262Z,9.37
2019-03-03T05:02:21.187Z,9.31
2019-03-03T05:03:21.093Z,9.32
2019-03-03T05:04:21.009Z,9.37
2019-03-03T05:05:20.933Z,9.32
2019-03-03T05:06:20.845Z,9.39
2019-03-03T05:07:20.764Z,9.37
2019-03-03T05:08:20.674Z,9.32
2019-03-03T05:09:20.597Z,9.34
2019-03-03T05:10:20.510Z,9.32
2019-03-03T05:11:20.424Z,9.31
2019-03-03T05:12:20.340Z,9.43
2019-03-03T05:13:20.260Z,9.39
2019-03-03T05:14:20.169Z,9.41
2019-03-03T05:15:20.088Z,9.44
2019-03-03T05:16:20.005Z,9.44
2019-03-03T05:17:19.917Z,9.40
2019-03-03T05:18:19.842Z,9.46
2019-03-03T05:19:19.751Z,9.39
2019-03-03T05:20:26.843Z,9.41
2019-03-03T05:22:23.490Z,9.34
2019-03-03T05:23:23.396Z,9.31
2019-03-03T05:25:27.206Z,9.34
2019-03-03T05:26:27.108Z,9.28
2019-03-03T05:28:30.917Z,9.31
2019-03-03T05:29:30.822Z,9.31
2019-03-03T05:31:23.574Z,9.25
2019-03-03T05:32:23.481Z,9.23
2019-03-03T05:34:27.295Z,9.23
2019-03-03T05:35:27.199Z,9.31
2019-03-03T05:37:32.007Z,9.28
2019-03-03T05:38:31.917Z,9.31
2019-03-03T05:40:35.722Z,9.22
2019-03-03T05:41:35.638Z,9.29
2019-03-03T05:43:39.418Z,9.43
2019-03-03T05:44:39.332Z,9.39
2019-03-03T05:46:43.133Z,9.36
2019-03-03T05:47:43.073Z,9.36
2019-03-03T05:49:46.841Z,9.31
2019-03-03T05:50:46.742Z,9.32
2019-03-03T05:52:50.551Z,9.41
2019-03-03T05:53:50.450Z,9.29
2019-03-03T05:55:54.254Z,9.32
2019-03-03T05:56:54.161Z,9.34
2019-03-03T05:58:57.963Z,9.37
2019-03-03T05:59:57.879Z,9.39
2019-03-03T06:02:01.686Z,9.34
2019-03-03T06:03:01.588Z,9.41
2019-03-03T06:05:05.405Z,9.44
2019-03-03T06:06:05.306Z,9.47
2019-03-03T06:08:09.127Z,9.32
2019-03-03T06:09:09.049Z,9.32
2019-03-03T06:11:01.783Z,9.32
2019-03-03T06:12:01.682Z,9.34
2019-03-03T06:14:05.486Z,9.46
2019-03-03T06:15:05.393Z,9.51
2019-03-03T06:17:09.204Z,9.47
2019-03-03T06:18:09.100Z,9.50
2019-03-03T06:20:13.915Z,9.54
2019-03-03T06:21:13.817Z,9.55
2019-03-03T06:23:17.608Z,9.50
2019-03-03T06:24:17.518Z,9.46
2019-03-03T06:26:21.323Z,9.61
2019-03-03T06:27:21.225Z,9.62
2019-03-03T06:29:25.020Z,9.59
2019-03-03T06:30:24.933Z,9.64
2019-03-03T06:32:28.776Z,9.46
2019-03-03T06:33:28.658Z,9.55
2019-03-03T06:35:33.790Z,9.54
2019-03-03T06:36:32.393Z,9.56
2019-03-03T06:38:42.804Z,9.47
2019-03-03T06:39:36.606Z,9.61
2019-03-03T06:41:29.423Z,9.61
2019-03-03T06:42:29.270Z,9.59
2019-03-03T06:44:33.066Z,9.64
2019-03-03T06:45:32.981Z,9.65
2019-03-03T06:47:36.786Z,9.64
2019-03-03T06:48:36.689Z,9.68
2019-03-03T06:50:40.497Z,9.68
2019-03-03T06:51:40.398Z,9.69
2019-03-03T06:53:44.190Z,9.73
2019-03-03T06:54:44.101Z,9.72
2019-03-03T06:56:47.912Z,9.74
2019-03-03T06:57:47.815Z,9.74
2019-03-03T06:59:51.613Z,9.76
2019-03-03T07:00:51.528Z,9.73
2019-03-03T07:02:55.330Z,9.76
2019-03-03T07:03:55.248Z,9.73
2019-03-03T07:05:59.088Z,9.84
2019-03-03T07:06:58.947Z,9.80
2019-03-03T07:09:02.742Z,9.83
2019-03-03T07:10:02.654Z,9.83
2019-03-03T07:12:06.457Z,9.72
2019-03-03T07:13:06.362Z,9.84
2019-03-03T07:15:10.176Z,9.82
2019-03-03T07:16:10.082Z,9.84
2019-03-03T07:18:13.883Z,9.89
2019-03-03T07:19:13.801Z,9.77
2019-03-03T07:21:06.544Z,9.76
2019-03-03T07:22:06.449Z,9.87
2019-03-03T09:27:00.412Z,11.45
2019-03-03T09:27:36.340Z,11.48
2019-03-03T09:29:40.051Z,11.55
2019-03-03T09:30:39.955Z,11.60
2019-03-03T09:32:43.821Z,11.66
2019-03-03T09:33:44.636Z,11.65
2019-03-03T09:35:47.512Z,11.57
2019-03-03T09:36:47.386Z,11.62
2019-03-03T09:38:51.190Z,11.60
2019-03-03T09:39:51.094Z,11.65
2019-03-03T09:41:44.560Z,11.63
2019-03-03T10:23:22.126Z,11.84
2019-03-03T10:24:22.028Z,11.99
2019-03-03T10:26:25.829Z,12.04
2019-03-03T10:27:25.742Z,12.06
2019-03-03T10:29:29.555Z,12.09
2019-03-03T10:30:29.458Z,12.00
2019-03-03T10:32:33.262Z,12.10
2019-03-03T10:33:33.229Z,12.02
2019-03-03T10:35:37.017Z,12.03
2019-03-03T10:36:36.898Z,12.06
2019-03-03T10:38:40.711Z,12.02
2019-03-03T10:39:40.673Z,11.99
2019-03-03T10:41:33.371Z,12.13
2019-03-03T10:42:33.277Z,12.02
2019-03-03T10:43:33.193Z,12.07
2019-03-03T10:44:33.115Z,12.09
2019-03-03T10:45:33.034Z,12.06
2019-03-03T10:46:32.951Z,12.17
2019-03-03T10:47:32.898Z,12.21
2019-03-03T10:48:32.854Z,12.17
2019-03-03T10:49:32.715Z,12.22
2019-03-03T10:50:32.624Z,12.22
2019-03-03T10:51:32.775Z,12.15
2019-03-03T10:52:32.463Z,12.13
2019-03-03T10:53:32.383Z,12.20
2019-03-03T10:54:32.303Z,12.18
2019-03-03T10:55:32.220Z,12.24
2019-03-03T10:56:32.142Z,12.25
2019-03-03T10:57:32.062Z,12.22
2019-03-03T10:58:31.974Z,12.32
2019-03-03T10:59:31.895Z,12.28
2019-03-03T11:00:31.814Z,12.27
2019-03-03T11:01:31.734Z,12.29
2019-03-03T11:02:31.653Z,12.27
2019-03-03T11:03:31.571Z,12.28
2019-03-03T11:04:31.491Z,12.25
2019-03-03T11:05:31.409Z,12.31
2019-03-03T11:06:31.335Z,12.28
2019-03-03T11:07:31.251Z,12.37
2019-03-03T11:08:31.169Z,12.28
2019-03-03T11:09:31.083Z,12.37
2019-03-03T11:10:31.027Z,12.31
2019-03-03T11:11:30.922Z,12.32
2019-03-03T11:12:30.843Z,12.39
2019-03-03T11:13:30.756Z,12.36
2019-03-03T11:14:30.681Z,12.22
2019-03-03T11:15:30.597Z,12.27
2019-03-03T11:16:30.520Z,12.36
2019-03-03T11:17:30.446Z,12.36
2019-03-03T11:18:30.357Z,12.36
2019-03-03T11:19:30.280Z,12.35
2019-03-03T11:22:03.305Z,12.45
2019-03-03T11:23:03.138Z,12.29
2019-03-03T11:25:06.984Z,12.40
2019-03-03T11:26:06.891Z,12.39
2019-03-03T11:27:06.811Z,12.43
2019-03-03T11:28:06.730Z,12.40
2019-03-03T11:29:06.687Z,12.43
2019-03-03T11:30:06.569Z,12.45
2019-03-03T11:31:06.482Z,12.40
2019-03-03T11:32:06.405Z,12.37
2019-03-03T11:33:06.468Z,12.43
2019-03-03T11:34:06.325Z,12.43
2019-03-03T11:35:06.170Z,12.37
2019-03-03T11:36:06.108Z,12.43
2019-03-03T11:37:09.945Z,12.43
2019-03-03T11:38:05.921Z,12.45
2019-03-03T11:39:05.837Z,12.42
2019-03-03T11:40:05.760Z,12.49
2019-03-03T11:41:05.679Z,12.47
2019-03-03T11:42:05.602Z,12.37
2019-03-03T11:43:05.528Z,12.49
2019-03-03T11:44:05.435Z,12.50
2019-03-03T11:45:05.355Z,12.54
2019-03-03T11:46:05.282Z,12.55
2019-03-03T11:47:05.190Z,12.49
2019-03-03T11:48:05.110Z,12.53
2019-03-03T11:49:05.043Z,12.50
2019-03-03T11:50:04.974Z,12.54
2019-03-03T11:51:04.866Z,12.57
2019-03-03T11:52:04.852Z,12.68
2019-03-03T11:53:04.706Z,12.65
2019-03-03T11:54:04.622Z,12.62
2019-03-03T11:55:04.545Z,12.73
2019-03-03T11:56:04.462Z,12.65
2019-03-03T11:57:04.381Z,12.70
2019-03-03T11:58:04.305Z,12.76
2019-03-03T11:59:04.225Z,12.79
2019-03-03T12:00:04.162Z,12.87
2019-03-03T12:01:04.060Z,12.83
2019-03-03T12:02:03.983Z,12.73
2019-03-03T12:03:03.947Z,12.76
2019-03-03T12:04:03.820Z,12.72
2019-03-03T12:05:03.736Z,12.72
2019-03-03T12:06:03.660Z,12.67
2019-03-03T12:07:03.575Z,12.64
2019-03-03T12:08:03.504Z,12.65
2019-03-03T12:09:03.500Z,12.62
2019-03-03T12:10:03.336Z,12.62
2019-03-03T12:11:03.269Z,12.62
2019-03-03T12:12:03.174Z,12.65
2019-03-03T12:13:03.094Z,12.62
2019-03-03T12:14:03.012Z,12.67
2019-03-03T12:15:02.937Z,12.72
2019-03-03T12:16:02.852Z,12.67
2019-03-03T12:17:02.776Z,12.67
2019-03-03T12:18:02.691Z,12.58
2019-03-03T12:19:02.613Z,12.64
2019-03-03T12:20:02.535Z,12.46
2019-03-03T12:21:02.447Z,12.57
2019-03-03T12:22:02.372Z,12.49
2019-03-03T12:23:02.291Z,12.53
2019-03-03T12:24:02.209Z,12.55
2019-03-03T12:25:02.122Z,12.54
2019-03-03T12:26:02.044Z,12.55
2019-03-03T12:27:01.963Z,12.49
2019-03-03T12:28:01.894Z,12.47
2019-03-03T12:29:01.797Z,12.54
2019-03-03T12:30:01.753Z,12.53
2019-03-03T12:31:01.635Z,12.55
2019-03-03T12:32:01.569Z,12.54
2019-03-03T12:33:01.473Z,12.60
2019-03-03T12:34:01.401Z,12.64
2019-03-03T12:35:01.375Z,12.53
2019-03-03T12:36:01.236Z,12.60
2019-03-03T12:37:01.150Z,12.57
2019-03-03T12:38:01.074Z,12.60
2019-03-03T12:39:00.988Z,12.53
2019-03-03T12:40:00.908Z,12.57
2019-03-03T12:41:00.828Z,12.57
2019-03-03T12:42:00.740Z,12.62
2019-03-03T12:43:00.663Z,12.53
2019-03-03T12:44:00.611Z,12.49
2019-03-03T12:45:00.505Z,12.57
2019-03-03T12:46:00.462Z,12.49
2019-03-03T12:47:00.342Z,12.50
2019-03-03T12:48:00.260Z,12.49
2019-03-03T12:49:00.178Z,12.55
2019-03-03T12:50:00.096Z,12.47
2019-03-03T12:51:00.014Z,12.54
2019-03-03T12:51:59.935Z,12.50
2019-03-03T12:52:59.851Z,12.49
2019-03-03T12:53:59.769Z,12.53
2019-03-03T12:54:59.690Z,12.55
2019-03-03T12:55:59.611Z,12.55
2019-03-03T12:56:59.528Z,12.50
2019-03-03T12:57:59.450Z,12.54
2019-03-03T12:58:59.365Z,12.55
2019-03-03T12:59:59.281Z,12.58
2019-03-03T13:00:59.203Z,12.55
2019-03-03T13:01:59.125Z,12.54
2019-03-03T13:02:59.052Z,12.53
2019-03-03T13:03:58.966Z,12.53
2019-03-03T13:04:58.881Z,12.55
2019-03-03T13:05:58.815Z,12.57
2019-03-03T13:06:58.721Z,12.61
2019-03-03T13:07:58.635Z,12.54
2019-03-03T13:08:59.847Z,12.49
2019-03-03T13:09:58.471Z,12.58
2019-03-03T13:10:58.398Z,12.50
2019-03-03T13:11:58.311Z,12.58
2019-03-03T13:12:58.271Z,12.54
2019-03-03T13:13:58.152Z,12.54
2019-03-03T13:14:58.070Z,12.67
2019-03-03T13:15:58.019Z,12.64
2019-03-03T13:16:57.907Z,12.67
2019-03-03T13:17:57.824Z,12.67
2019-03-03T13:18:57.746Z,12.64
2019-03-03T13:19:57.666Z,12.72
2019-03-03T13:20:57.585Z,12.61
2019-03-03T13:21:57.501Z,12.73
2019-03-03T13:22:57.420Z,12.73
2019-03-03T13:23:57.343Z,12.78
2019-03-03T13:24:57.262Z,12.82
2019-03-03T13:25:57.184Z,12.82
2019-03-03T13:26:57.097Z,12.86
2019-03-03T13:27:57.023Z,12.97
2019-03-03T13:28:56.942Z,12.94
2019-03-03T13:29:56.858Z,13.15
2019-03-03T13:30:56.778Z,13.20
2019-03-03T13:31:56.704Z,13.28
2019-03-03T13:32:56.614Z,13.27
2019-03-03T13:33:56.536Z,13.39
2019-03-03T13:34:56.459Z,13.53
2019-03-03T13:35:56.378Z,13.67
2019-03-03T13:36:56.294Z,13.65
2019-03-03T13:37:56.219Z,13.70
2019-03-03T13:38:56.135Z,13.70
2019-03-03T13:39:56.055Z,13.89
2019-03-03T13:40:55.984Z,13.79
2019-03-03T13:41:55.898Z,13.95
2019-03-03T13:42:55.822Z,14.07
2019-03-03T13:43:55.744Z,14.04
2019-03-03T13:44:55.664Z,14.20
2019-03-03T13:45:55.581Z,14.17
2019-03-03T13:46:55.516Z,14.18
2019-03-03T13:47:55.430Z,14.11
2019-03-03T14:32:44.384Z,13.52
2019-03-03T14:37:08.590Z,13.42
2019-03-03T14:38:08.498Z,13.42
2019-03-03T14:40:50.158Z,13.50
2019-03-03T14:41:50.087Z,13.54
2019-03-03T14:42:49.976Z,13.57
2019-03-03T14:43:49.916Z,13.53
2019-03-03T14:44:49.844Z,13.56
2019-03-03T14:45:49.741Z,13.50
2019-03-03T14:46:49.758Z,13.52
2019-03-03T14:47:49.643Z,13.42
2019-03-03T14:48:49.488Z,13.44
2019-03-03T14:49:49.420Z,13.44
2019-03-03T14:50:49.331Z,13.47
2019-03-03T14:51:49.346Z,13.47
2019-03-03T14:52:49.236Z,13.44
2019-03-03T14:53:49.188Z,13.49
2019-03-03T14:54:49.198Z,13.44
2019-03-03T14:59:48.176Z,13.50
2019-03-03T15:00:48.029Z,13.52
2019-03-03T15:05:06.050Z,13.56
2019-03-03T15:05:44.869Z,13.53
2019-03-03T15:07:49.172Z,13.52
2019-03-03T15:08:49.155Z,13.50
2019-03-03T15:10:54.398Z,13.54
2019-03-03T15:11:54.309Z,13.53
2019-03-03T15:14:01.329Z,13.54
2019-03-03T15:15:01.025Z,13.54
2019-03-03T15:16:00.931Z,13.53
2019-03-03T15:17:00.871Z,13.53
2019-03-03T15:18:00.837Z,13.46
2019-03-03T15:19:00.858Z,13.44
2019-03-03T15:20:00.620Z,13.46
2019-03-03T15:21:00.527Z,13.46
2019-03-03T15:22:00.461Z,13.49
2019-03-03T15:23:00.366Z,13.42
2019-03-03T15:24:00.291Z,13.49
2019-03-03T15:25:00.315Z,13.46
2019-03-03T15:26:00.132Z,13.46
2019-03-03T15:27:00.048Z,13.46
2019-03-03T15:27:59.972Z,13.44
2019-03-03T15:28:59.883Z,13.41
2019-03-03T15:29:59.806Z,13.44
2019-03-03T15:30:59.732Z,13.49
2019-03-03T15:31:59.645Z,13.42
2019-03-03T15:32:59.575Z,13.42
2019-03-03T15:33:59.493Z,13.44
2019-03-03T15:34:59.408Z,13.41
2019-03-03T15:35:59.327Z,13.39
2019-03-03T15:36:59.251Z,13.39
2019-03-03T15:37:59.168Z,13.35
2019-03-03T15:38:59.085Z,13.38
2019-03-03T15:39:59.010Z,13.35
2019-03-03T15:40:58.945Z,13.31
2019-03-03T15:41:58.845Z,13.37
2019-03-03T15:42:58.762Z,13.35
2019-03-03T15:43:58.689Z,13.37
2019-03-03T15:44:58.605Z,13.35
2019-03-03T15:45:58.523Z,13.37
2019-03-03T15:46:58.450Z,13.30
2019-03-03T15:47:58.361Z,13.31
2019-03-03T15:48:58.280Z,13.37
2019-03-03T15:49:58.205Z,13.33
2019-03-03T15:50:58.128Z,13.37
2019-03-03T15:51:58.038Z,13.38
2019-03-03T15:52:57.962Z,13.35
2019-03-03T15:53:57.880Z,13.42
2019-03-03T15:54:57.806Z,13.35
2019-03-03T15:55:57.719Z,13.37
2019-03-03T15:56:57.647Z,13.38
2019-03-03T15:57:57.558Z,13.39
2019-03-03T15:58:57.478Z,13.35
2019-03-03T15:59:57.399Z,13.38
2019-03-03T16:00:57.317Z,13.38
2019-03-03T16:01:57.235Z,13.38
2019-03-03T16:02:57.161Z,13.39
2019-03-03T16:03:57.078Z,13.38
2019-03-03T16:04:57.000Z,13.38
2019-03-03T16:05:56.915Z,13.33
2019-03-03T16:06:56.837Z,13.39
2019-03-03T16:07:56.758Z,13.41
2019-03-03T16:08:56.681Z,13.39
2019-03-03T16:09:56.600Z,13.41
2019-03-03T16:10:56.516Z,13.42
2019-03-03T16:11:56.436Z,13.41
2019-03-03T16:12:56.360Z,13.41
2019-03-03T16:13:56.269Z,13.35
2019-03-03T16:14:56.197Z,13.37
2019-03-03T16:15:56.114Z,13.38
2019-03-03T16:16:56.033Z,13.31
2019-03-03T16:17:55.965Z,13.20
2019-03-03T16:18:55.874Z,13.30
2019-03-03T16:19:55.791Z,13.30
2019-03-03T16:20:55.713Z,13.25
2019-03-03T16:21:55.635Z,13.23
2019-03-03T16:22:55.552Z,13.28
2019-03-03T16:23:55.470Z,13.27
2019-03-03T16:24:55.390Z,13.25
2019-03-03T16:25:55.355Z,13.25
2019-03-03T16:26:55.235Z,13.33
2019-03-03T16:27:55.156Z,13.23
2019-03-03T16:28:55.077Z,13.23
2019-03-03T16:29:54.995Z,13.27
2019-03-03T16:30:54.909Z,13.25
2019-03-03T16:31:54.830Z,13.22
2019-03-03T16:32:54.753Z,13.31
2019-03-03T16:33:54.670Z,13.27
2019-03-03T16:34:54.601Z,13.25
2019-03-03T16:35:54.513Z,13.25
2019-03-03T16:36:54.430Z,13.31
2019-03-03T16:37:54.352Z,13.22
2019-03-03T16:38:54.271Z,13.25
2019-03-03T16:39:54.214Z,13.15
2019-03-03T16:40:54.112Z,13.11
2019-03-03T16:41:54.027Z,13.12
2019-03-03T16:42:53.945Z,13.09
2019-03-03T16:43:53.868Z,13.09
2019-03-03T16:44:53.791Z,13.09
2019-03-03T16:45:53.711Z,13.11
2019-03-03T16:46:53.625Z,13.04
2019-03-03T16:47:53.549Z,13.04
2019-03-03T16:48:53.470Z,13.08
2019-03-03T16:49:53.388Z,12.97
2019-03-03T16:50:53.304Z,12.97
2019-03-03T16:51:53.226Z,13.01
2019-03-03T16:52:53.158Z,12.95
2019-03-03T16:53:53.067Z,12.97
2019-03-03T16:54:52.983Z,12.97
2019-03-03T16:55:52.902Z,12.91
2019-03-03T16:56:52.827Z,12.91
2019-03-03T16:57:52.745Z,12.94
2019-03-03T16:58:52.662Z,12.90
2019-03-03T16:59:52.582Z,12.93
2019-03-03T17:00:52.500Z,12.86
2019-03-03T17:01:52.419Z,12.90
2019-03-03T17:02:52.337Z,12.83
2019-03-03T17:03:52.256Z,12.85
2019-03-03T17:04:52.213Z,12.86
2019-03-03T17:05:52.099Z,12.82
2019-03-03T17:06:52.015Z,12.83
2019-03-03T17:07:51.934Z,12.80
2019-03-03T17:08:51.856Z,12.79
2019-03-03T17:09:51.794Z,12.87
2019-03-03T17:10:51.693Z,12.82
2019-03-03T17:11:51.611Z,12.80
2019-03-03T17:12:51.531Z,12.78
2019-03-03T17:13:51.453Z,12.80
2019-03-03T17:14:51.371Z,12.85
2019-03-03T17:15:51.295Z,12.70
2019-03-03T17:16:51.207Z,12.82
2019-03-03T17:17:51.132Z,12.83
2019-03-03T17:18:51.049Z,12.83
2019-03-03T17:19:50.968Z,12.82
2019-03-03T17:20:52.426Z,12.75
2019-03-03T17:21:50.807Z,12.73
2019-03-03T17:22:50.727Z,12.75
2019-03-03T17:23:50.751Z,12.73
2019-03-03T17:24:50.565Z,12.72
2019-03-03T17:25:50.482Z,12.76
2019-03-03T17:26:50.404Z,12.72
2019-03-03T17:27:50.321Z,12.72
2019-03-03T17:28:50.240Z,12.73
2019-03-03T17:29:50.159Z,12.65
2019-03-03T17:30:50.081Z,12.67
2019-03-03T17:31:49.998Z,12.64
2019-03-03T17:32:49.918Z,12.65
2019-03-03T17:33:49.842Z,12.64
2019-03-03T17:34:49.760Z,12.55
2019-03-03T17:35:49.679Z,12.49
2019-03-03T17:36:49.599Z,12.55
2019-03-03T17:37:49.517Z,12.50
2019-03-03T17:38:49.437Z,12.49
2019-03-03T17:39:49.359Z,12.45
2019-03-03T17:40:49.290Z,12.45
2019-03-03T17:41:49.195Z,12.40
2019-03-03T17:42:49.115Z,12.40
2019-03-03T17:43:49.032Z,12.45